createdAt,value
2022-08-16T00:01:24.410Z,99280.69
2022-08-16T00:03:53.664Z,99274.63
2022-08-16T00:06:22.392Z,99281.44
2022-08-16T00:08:50.405Z,99275.00
2022-08-16T00:11:21.731Z,99282.72
2022-08-16T00:13:53.337Z,99272.81
2022-08-16T00:17:05.736Z,99272.34
2022-08-16T00:19:10.756Z,99270.63
2022-08-16T00:21:42.317Z,99275.34
2022-08-16T00:24:11.593Z,99269.72
2022-08-16T00:26:43.952Z,99272.34
2022-08-16T00:29:16.314Z,99268.00
2022-08-16T00:31:58.957Z,99271.09
2022-08-16T00:34:43.419Z,99270.75
2022-08-16T00:37:12.553Z,99275.00
2022-08-16T00:39:45.513Z,99280.72
2022-08-16T00:42:30.571Z,99277.88
2022-08-16T00:45:09.652Z,99269.94
2022-08-16T00:47:49.250Z,99268.88
2022-08-16T00:50:20.636Z,99277.28
2022-08-16T00:52:51.021Z,99278.38
2022-08-16T00:55:22.364Z,99283.16
2022-08-16T00:57:59.558Z,99279.47
2022-08-16T01:00:33.629Z,99278.97
2022-08-16T01:03:11.737Z,99283.63
2022-08-16T01:05:41.095Z,99279.63
2022-08-16T01:08:35.252Z,99294.50
2022-08-16T01:10:59.883Z,99297.91
2022-08-16T01:13:30.406Z,99297.03
2022-08-16T01:16:01.133Z,99291.47
2022-08-16T01:18:40.315Z,99301.63
2022-08-16T01:21:22.168Z,99304.75
2022-08-16T01:24:04.198Z,99303.88
2022-08-16T01:26:35.382Z,99303.81
2022-08-16T01:29:10.048Z,99292.59
2022-08-16T01:31:42.510Z,99298.06
2022-08-16T01:34:19.406Z,99286.75
2022-08-16T01:37:02.737Z,99291.72
2022-08-16T01:39:34.387Z,99293.81
2022-08-16T01:42:12.206Z,99288.97
2022-08-16T01:44:41.612Z,99296.06
2022-08-16T01:47:11.296Z,99301.41
2022-08-16T01:53:31.954Z,99310.19
2022-08-16T01:56:02.264Z,99318.47
2022-08-16T01:58:30.504Z,99313.84
2022-08-16T02:00:58.205Z,99311.75
2022-08-16T02:03:26.577Z,99306.16
2022-08-16T02:05:54.230Z,99305.50
2022-08-16T02:08:33.385Z,99306.31
2022-08-16T02:11:05.016Z,99295.63
2022-08-16T02:13:32.880Z,99301.63
2022-08-16T02:16:00.478Z,99310.34
2022-08-16T02:18:28.848Z,99310.53
2022-08-16T02:20:56.414Z,99309.22
2022-08-16T02:23:24.610Z,99306.09
2022-08-16T02:25:54.672Z,99311.94
2022-08-16T02:28:24.823Z,99310.84
2022-08-16T02:30:52.602Z,99313.63
2022-08-16T02:33:20.781Z,99322.81
2022-08-16T02:35:58.067Z,99310.63
2022-08-16T02:38:26.492Z,99324.69
2022-08-16T02:40:54.912Z,99320.03
2022-08-16T02:43:26.684Z,99314.84
2022-08-16T02:45:55.067Z,99308.22
2022-08-16T02:48:28.406Z,99308.72
2022-08-16T02:51:10.345Z,99308.22
2022-08-16T02:53:48.120Z,99310.50
2022-08-16T02:56:18.331Z,99306.56
2022-08-16T02:58:48.785Z,99316.94
2022-08-16T03:01:24.593Z,99325.06
2022-08-16T03:04:30.061Z,99323.16
2022-08-16T03:06:50.881Z,99323.34
2022-08-16T03:09:25.044Z,99319.38
2022-08-16T03:11:52.284Z,99323.47
2022-08-16T03:14:24.645Z,99325.50
2022-08-16T03:16:59.295Z,99324.81
2022-08-16T03:19:48.068Z,99328.03
2022-08-16T03:22:18.875Z,99337.63
2022-08-16T03:24:47.238Z,99331.50
2022-08-16T03:27:14.539Z,99334.13
2022-08-16T03:29:54.396Z,99330.94
2022-08-16T03:32:22.211Z,99337.75
2022-08-16T03:34:49.838Z,99328.56
2022-08-16T03:37:17.367Z,99329.75
2022-08-16T03:39:44.609Z,99340.38
2022-08-16T03:42:12.220Z,99337.38
2022-08-16T03:44:49.640Z,99349.34
2022-08-16T03:47:18.909Z,99347.00
2022-08-16T03:49:47.433Z,99348.09
2022-08-16T03:52:20.141Z,99343.09
2022-08-16T03:54:57.498Z,99351.13
2022-08-16T03:57:31.887Z,99359.75
2022-08-16T04:00:06.699Z,99348.78
2022-08-16T04:02:34.160Z,99355.03
2022-08-16T04:05:03.869Z,99363.28
2022-08-16T04:07:34.040Z,99361.56
2022-08-16T04:10:35.608Z,99364.25
2022-08-16T04:12:52.226Z,99376.56
2022-08-16T04:15:23.994Z,99382.72
2022-08-16T04:17:54.180Z,99375.31
2022-08-16T04:20:23.782Z,99378.44
2022-08-16T04:23:01.989Z,99384.22
2022-08-16T04:25:29.565Z,99381.47
2022-08-16T04:27:56.897Z,99388.38
2022-08-16T04:30:31.842Z,99387.91
2022-08-16T04:33:02.162Z,99395.81
2022-08-16T04:35:34.212Z,99399.53
2022-08-16T04:38:11.012Z,99406.06
2022-08-16T04:40:50.013Z,99409.63
2022-08-16T04:43:17.753Z,99408.25
2022-08-16T04:45:47.247Z,99413.03
2022-08-16T04:48:32.585Z,99411.25
2022-08-16T04:51:01.721Z,99411.28
2022-08-16T04:53:41.440Z,99413.63
2022-08-16T04:56:11.562Z,99418.09
2022-08-16T04:58:45.800Z,99414.84
2022-08-16T05:01:16.380Z,99426.66
2022-08-16T05:04:00.351Z,99419.09
2022-08-16T05:06:45.329Z,99427.19
2022-08-16T05:09:13.213Z,99428.72
2022-08-16T05:11:40.696Z,99432.19
2022-08-16T05:14:08.080Z,99424.16
2022-08-16T05:16:38.204Z,99422.03
2022-08-16T05:19:05.963Z,99430.75
2022-08-16T05:21:39.601Z,99439.94
2022-08-16T05:24:09.247Z,99440.56
2022-08-16T05:26:36.599Z,99449.47
2022-08-16T05:29:04.698Z,99455.38
2022-08-16T05:31:33.007Z,99460.59
2022-08-16T05:34:04.550Z,99453.69
2022-08-16T05:36:34.150Z,99459.59
2022-08-16T05:39:06.451Z,99469.53
2022-08-16T05:41:45.522Z,99473.44
2022-08-16T05:44:23.457Z,99465.13
2022-08-16T05:46:54.092Z,99461.91
2022-08-16T05:49:24.430Z,99463.59
2022-08-16T05:51:52.745Z,99473.50
2022-08-16T05:54:25.257Z,99466.69
2022-08-16T05:56:54.389Z,99469.09
2022-08-16T05:59:23.800Z,99469.44
2022-08-16T06:01:51.306Z,99466.69
2022-08-16T06:04:35.328Z,99467.81
2022-08-16T06:07:07.071Z,99480.69
2022-08-16T06:09:42.896Z,99472.72
2022-08-16T06:12:12.442Z,99471.88
2022-08-16T06:14:40.392Z,99467.16
2022-08-16T06:17:07.755Z,99472.34
2022-08-16T06:19:35.767Z,99464.59
2022-08-16T06:22:05.132Z,99473.34
2022-08-16T06:24:52.598Z,99477.59
2022-08-16T06:27:19.704Z,99477.34
2022-08-16T06:29:49.919Z,99487.47
2022-08-16T06:32:27.413Z,99488.22
2022-08-16T06:35:02.256Z,99490.78
2022-08-16T06:37:36.912Z,99499.41
2022-08-16T06:40:12.924Z,99498.09
2022-08-16T06:42:53.950Z,99505.13
2022-08-16T06:45:24.782Z,99512.69
2022-08-16T06:47:57.054Z,99515.25
2022-08-16T06:50:28.764Z,99517.47
2022-08-16T06:53:06.673Z,99515.03
2022-08-16T06:55:38.142Z,99513.19
2022-08-16T06:58:08.317Z,99516.66
2022-08-16T07:00:48.882Z,99518.28
2022-08-16T07:03:28.436Z,99520.06
2022-08-16T07:05:59.981Z,99525.88
2022-08-16T07:08:29.406Z,99525.91
2022-08-16T07:10:57.679Z,99521.31
2022-08-16T07:13:57.707Z,99531.78
2022-08-16T07:16:15.391Z,99528.44
2022-08-16T07:18:58.696Z,99529.97
2022-08-16T07:21:46.255Z,99535.03
2022-08-16T07:24:30.550Z,99522.34
2022-08-16T07:26:58.517Z,99518.97
2022-08-16T07:29:25.733Z,99522.28
2022-08-16T07:31:53.928Z,99517.44
2022-08-16T07:34:34.957Z,99521.81
2022-08-16T07:37:05.707Z,99519.72
2022-08-16T07:39:34.648Z,99519.16
2022-08-16T07:42:10.699Z,99519.28
2022-08-16T07:44:57.160Z,99517.19
2022-08-16T07:47:31.737Z,99521.44
2022-08-16T07:50:00.314Z,99523.34
2022-08-16T07:52:34.939Z,99516.22
2022-08-16T07:55:10.548Z,99512.53
2022-08-16T07:57:59.595Z,99518.50
2022-08-16T08:00:26.569Z,99515.66
2022-08-16T08:02:54.511Z,99532.31
2022-08-16T08:05:25.334Z,99523.44
2022-08-16T08:08:11.991Z,99530.91
2022-08-16T08:10:54.619Z,99529.13
2022-08-16T08:13:41.641Z,99527.06
2022-08-16T08:16:09.769Z,99534.66
2022-08-16T08:18:49.811Z,99524.34
2022-08-16T08:21:17.930Z,99533.38
2022-08-16T08:23:46.057Z,99528.47
2022-08-16T08:26:19.145Z,99530.00
2022-08-16T08:28:46.667Z,99527.88
2022-08-16T08:31:16.269Z,99532.22
2022-08-16T08:33:47.316Z,99532.94
2022-08-16T08:36:33.548Z,99539.28
2022-08-16T08:39:02.349Z,99534.75
2022-08-16T08:41:31.101Z,99539.41
2022-08-16T08:43:58.944Z,99545.97
2022-08-16T08:46:27.757Z,99538.13
2022-08-16T08:49:02.912Z,99543.59
2022-08-16T08:51:32.036Z,99542.94
2022-08-16T08:54:03.817Z,99540.44
2022-08-16T08:56:36.772Z,99548.81
2022-08-16T08:59:13.620Z,99545.28
2022-08-16T09:01:57.119Z,99548.75
2022-08-16T09:04:25.983Z,99550.00
2022-08-16T09:06:55.050Z,99552.78
2022-08-16T09:09:22.285Z,99548.53
2022-08-16T09:12:03.892Z,99550.47
2022-08-16T09:14:35.434Z,99555.59
2022-08-16T09:17:11.939Z,99559.22
2022-08-16T09:19:52.638Z,99549.56
2022-08-16T09:22:23.145Z,99554.47
2022-08-16T09:24:53.422Z,99559.19
2022-08-16T09:27:23.510Z,99550.72
2022-08-16T09:29:59.887Z,99551.81
2022-08-16T09:32:30.701Z,99552.84
2022-08-16T09:34:59.371Z,99544.81
2022-08-16T09:37:29.490Z,99549.06
2022-08-16T09:39:57.484Z,99553.75
2022-08-16T09:42:29.396Z,99552.78
2022-08-16T09:45:11.994Z,99555.81
2022-08-16T09:47:57.292Z,99552.91
2022-08-16T09:50:36.927Z,99552.78
2022-08-16T09:53:15.065Z,99549.94
2022-08-16T09:55:44.674Z,99547.47
2022-08-16T09:58:41.970Z,99545.66
2022-08-16T10:01:01.246Z,99543.91
2022-08-16T10:03:31.876Z,99545.59
2022-08-16T10:05:59.452Z,99546.81
2022-08-16T10:08:27.557Z,99541.72
2022-08-16T10:10:55.192Z,99552.72
2022-08-16T10:13:23.704Z,99543.59
2022-08-16T10:15:58.743Z,99548.97
2022-08-16T10:18:56.775Z,99550.19
2022-08-16T10:21:14.226Z,99542.81
2022-08-16T10:23:42.081Z,99539.56
2022-08-16T10:27:18.442Z,99539.38
2022-08-16T10:29:00.414Z,99548.94
2022-08-16T10:31:45.929Z,99543.47
2022-08-16T10:34:30.953Z,99548.56
2022-08-16T10:36:59.998Z,99551.94
2022-08-16T10:39:40.450Z,99548.09
2022-08-16T10:42:08.913Z,99546.97
2022-08-16T10:44:37.959Z,99547.22
2022-08-16T10:47:05.946Z,99559.16
2022-08-16T10:49:33.458Z,99557.41
2022-08-16T10:52:17.785Z,99557.53
2022-08-16T10:57:33.390Z,99551.47
2022-08-16T11:00:06.422Z,99561.34
2022-08-16T11:02:59.577Z,99550.03
2022-08-16T11:05:59.152Z,99555.31
2022-08-16T11:08:17.201Z,99552.06
2022-08-16T11:11:01.601Z,99553.00
2022-08-16T11:16:26.384Z,99545.84
2022-08-16T11:19:05.517Z,99545.84
2022-08-16T11:21:35.175Z,99547.78
2022-08-16T11:24:03.271Z,99548.16
2022-08-16T11:27:18.553Z,99538.56
2022-08-16T11:29:37.913Z,99546.19
2022-08-16T11:32:07.633Z,99547.53
2022-08-16T11:35:03.775Z,99541.34
2022-08-16T11:37:27.457Z,99543.75
2022-08-16T11:40:12.793Z,99544.31
2022-08-16T11:42:42.271Z,99549.63
2022-08-16T11:45:11.079Z,99546.34
2022-08-16T11:47:40.687Z,99550.63
2022-08-16T11:50:09.140Z,99546.31
2022-08-16T11:52:36.744Z,99543.50
2022-08-16T11:55:10.003Z,99540.69
2022-08-16T11:57:38.768Z,99540.38
2022-08-16T12:00:43.487Z,99535.47
2022-08-16T12:03:00.007Z,99534.84
2022-08-16T12:05:28.331Z,99530.22
2022-08-16T12:07:56.125Z,99537.78
2022-08-16T12:10:25.078Z,99537.19
2022-08-16T12:12:57.986Z,99535.72
2022-08-16T12:15:30.946Z,99532.13
2022-08-16T12:18:00.123Z,99535.75
2022-08-16T12:20:31.816Z,99523.06
2022-08-16T12:23:00.215Z,99527.38
2022-08-16T12:25:30.325Z,99525.47
2022-08-16T12:27:57.804Z,99519.06
2022-08-16T12:30:32.474Z,99507.47
2022-08-16T12:33:05.654Z,99508.38
2022-08-16T12:35:35.022Z,99507.97
2022-08-16T12:38:38.049Z,99510.56
2022-08-16T12:40:53.045Z,99504.47
2022-08-16T12:43:23.525Z,99495.19
2022-08-16T12:45:53.205Z,99499.75
2022-08-16T12:48:35.031Z,99495.97
2022-08-16T12:51:07.338Z,99492.50
2022-08-16T12:53:46.841Z,99493.84
2022-08-16T12:56:14.789Z,99498.03
2022-08-16T12:58:49.351Z,99491.88
2022-08-16T13:01:22.658Z,99487.78
2022-08-16T13:04:12.356Z,99488.72
2022-08-16T13:06:46.336Z,99484.81
2022-08-16T13:09:15.072Z,99488.06
2022-08-16T13:11:55.104Z,99479.56
2022-08-16T13:14:31.300Z,99487.84
2022-08-16T13:17:02.254Z,99486.03
2022-08-16T13:19:49.814Z,99488.78
2022-08-16T13:22:19.671Z,99486.00
2022-08-16T13:24:47.397Z,99491.59
2022-08-16T13:27:14.532Z,99490.72
2022-08-16T13:29:43.684Z,99489.66
2022-08-16T13:32:39.325Z,99487.16
2022-08-16T13:35:01.115Z,99489.34
2022-08-16T13:37:28.557Z,99490.91
2022-08-16T13:39:56.411Z,99483.41
2022-08-16T13:42:23.774Z,99483.78
2022-08-16T13:44:58.022Z,99480.63
2022-08-16T13:47:25.776Z,99483.00
2022-08-16T13:49:58.024Z,99469.44
2022-08-16T13:52:33.970Z,99472.84
2022-08-16T13:55:02.457Z,99473.97
2022-08-16T13:58:34.279Z,99462.94
2022-08-16T14:00:19.530Z,99461.97
2022-08-16T14:02:48.443Z,99459.66
2022-08-16T14:05:20.083Z,99449.53
2022-08-16T14:07:52.757Z,99457.81
2022-08-16T14:10:20.415Z,99451.81
2022-08-16T14:12:48.517Z,99455.25
2022-08-16T14:15:16.234Z,99453.06
2022-08-16T14:18:17.207Z,99444.50
2022-08-16T14:20:31.316Z,99447.09
2022-08-16T14:22:59.885Z,99445.09
2022-08-16T14:25:27.644Z,99445.88
2022-08-16T14:27:56.192Z,99451.22
2022-08-16T14:30:24.051Z,99454.69
2022-08-16T14:32:51.996Z,99459.19
2022-08-16T14:35:22.096Z,99458.03
2022-08-16T14:38:05.754Z,99455.09
2022-08-16T14:40:34.120Z,99456.97
2022-08-16T14:43:07.114Z,99461.72
2022-08-16T14:45:35.301Z,99468.28
2022-08-16T14:48:02.774Z,99473.09
2022-08-16T14:50:31.733Z,99469.03
2022-08-16T14:53:01.589Z,99470.25
2022-08-16T14:55:34.335Z,99464.69
2022-08-16T14:58:05.198Z,99460.16
2022-08-16T15:00:34.617Z,99461.63
2022-08-16T15:03:06.227Z,99462.69
2022-08-16T15:05:33.971Z,99463.63
2022-08-16T15:08:02.992Z,99472.88
2022-08-16T15:10:32.136Z,99468.06
2022-08-16T15:13:04.273Z,99457.81
2022-08-16T15:15:34.645Z,99470.72
2022-08-16T15:18:02.947Z,99467.16
2022-08-16T15:20:32.351Z,99459.66
2022-08-16T15:23:01.922Z,99461.06
2022-08-16T15:25:31.946Z,99455.84
2022-08-16T15:28:01.998Z,99458.22
2022-08-16T15:30:59.682Z,99451.41
2022-08-16T15:33:19.945Z,99462.88
2022-08-16T15:35:48.383Z,99456.88
2022-08-16T15:38:55.060Z,99464.28
2022-08-16T15:41:04.030Z,99455.16
2022-08-16T15:43:39.498Z,99451.94
2022-08-16T15:46:08.819Z,99462.34
2022-08-16T15:48:36.038Z,99454.31
2022-08-16T15:51:08.294Z,99458.97
2022-08-16T15:53:37.548Z,99458.13
2022-08-16T15:56:05.453Z,99451.50
2022-08-16T15:58:35.011Z,99455.94
2022-08-16T16:01:06.173Z,99454.91
2022-08-16T16:03:34.943Z,99455.94
2022-08-16T16:06:02.361Z,99456.63
2022-08-16T16:08:31.293Z,99461.41
2022-08-16T16:11:00.255Z,99452.97
2022-08-16T16:13:35.451Z,99448.16
2022-08-16T16:16:04.203Z,99458.50
2022-08-16T16:18:40.752Z,99458.47
2022-08-16T16:21:19.933Z,99456.06
2022-08-16T16:23:54.831Z,99463.22
2022-08-16T16:26:25.137Z,99457.53
2022-08-16T16:29:08.659Z,99464.75
2022-08-16T16:31:44.011Z,99470.69
2022-08-16T16:34:32.336Z,99471.78
2022-08-16T16:37:03.196Z,99480.53
2022-08-16T16:39:32.675Z,99470.72
2022-08-16T16:42:00.058Z,99475.75
2022-08-16T16:44:33.860Z,99475.41
2022-08-16T16:47:04.285Z,99470.06
2022-08-16T16:49:31.565Z,99477.50
2022-08-16T16:52:07.264Z,99476.47
2022-08-16T16:54:35.115Z,99477.09
2022-08-16T16:57:02.453Z,99478.38
2022-08-16T16:59:31.113Z,99479.81
2022-08-16T17:02:41.055Z,99478.22
2022-08-16T17:04:47.210Z,99478.44
2022-08-16T17:07:14.996Z,99478.38
2022-08-16T17:09:42.272Z,99485.19
2022-08-16T17:12:12.285Z,99489.28
2022-08-16T17:14:54.997Z,99488.19
2022-08-16T17:17:23.184Z,99493.28
2022-08-16T17:19:50.298Z,99484.66
2022-08-16T17:22:20.449Z,99492.72
2022-08-16T17:27:39.750Z,99492.69
2022-08-16T17:30:14.901Z,99489.06
2022-08-16T17:32:48.429Z,99493.81
2022-08-16T17:35:20.294Z,99487.41
2022-08-16T17:37:54.204Z,99494.84
2022-08-16T17:39:26.769Z,99497.88
2022-08-16T17:40:40.778Z,99505.94
2022-08-16T17:43:11.983Z,99497.06
2022-08-16T17:45:42.688Z,99492.66
2022-08-16T17:48:10.148Z,99504.06
2022-08-16T17:50:38.311Z,99494.78
2022-08-16T17:53:06.414Z,99502.16
2022-08-16T17:55:39.938Z,99502.28
2022-08-16T17:58:22.241Z,99502.38
2022-08-16T18:00:54.557Z,99498.50
2022-08-16T18:04:02.377Z,99500.44
2022-08-16T18:06:13.885Z,99502.22
2022-08-16T18:08:41.448Z,99503.72
2022-08-16T18:11:12.091Z,99518.41
2022-08-16T18:13:40.691Z,99515.47
2022-08-16T18:16:09.880Z,99520.03
2022-08-16T18:18:37.125Z,99520.78
2022-08-16T18:21:04.392Z,99522.63
2022-08-16T18:23:32.315Z,99523.31
2022-08-16T18:26:01.320Z,99524.38
2022-08-16T18:28:29.627Z,99525.38
2022-08-16T18:31:01.146Z,99526.22
2022-08-16T18:33:43.205Z,99519.88
2022-08-16T18:36:19.826Z,99519.06
2022-08-16T18:38:48.715Z,99531.22
2022-08-16T18:41:16.587Z,99541.00
2022-08-16T18:44:22.289Z,99535.41
2022-08-16T18:46:31.574Z,99534.44
2022-08-16T18:49:00.199Z,99542.03
2022-08-16T18:51:27.460Z,99538.53
2022-08-16T18:53:55.048Z,99538.59
2022-08-16T18:56:22.280Z,99545.59
2022-08-16T18:58:49.881Z,99538.44
2022-08-16T19:01:17.841Z,99548.53
2022-08-16T19:03:45.066Z,99540.88
2022-08-16T19:06:15.036Z,99552.72
2022-08-16T19:08:44.895Z,99539.94
2022-08-16T19:11:14.990Z,99548.22
2022-08-16T19:13:42.583Z,99549.84
2022-08-16T19:16:10.363Z,99557.19
2022-08-16T19:18:37.598Z,99548.09
2022-08-16T19:21:05.438Z,99550.00
2022-08-16T19:23:37.207Z,99557.97
2022-08-16T19:26:07.446Z,99549.91
2022-08-16T19:28:50.755Z,99555.66
2022-08-16T19:31:31.301Z,99550.69
2022-08-16T19:33:59.292Z,99548.75
2022-08-16T19:36:31.775Z,99560.19
2022-08-16T19:39:05.891Z,99565.41
2022-08-16T19:41:35.093Z,99561.00
2022-08-16T19:44:03.257Z,99557.63
2022-08-16T19:46:30.585Z,99561.59
2022-08-16T19:48:58.035Z,99561.63
2022-08-16T19:51:25.854Z,99567.75
2022-08-16T19:53:53.165Z,99562.50
2022-08-16T19:56:21.898Z,99564.75
2022-08-16T19:59:16.217Z,99561.16
2022-08-16T20:01:41.750Z,99562.50
2022-08-16T20:04:10.886Z,99559.53
2022-08-16T20:06:38.911Z,99558.44
2022-08-16T20:09:07.118Z,99563.31
2022-08-16T20:11:36.059Z,99560.03
2022-08-16T20:14:03.367Z,99569.84
2022-08-16T20:16:30.729Z,99570.41
2022-08-16T20:18:58.157Z,99567.44
2022-08-16T20:21:25.366Z,99571.81
2022-08-16T20:23:55.956Z,99571.25
2022-08-16T20:26:32.681Z,99569.63
2022-08-16T20:29:01.276Z,99581.16
2022-08-16T20:31:28.418Z,99572.31
2022-08-16T20:33:55.922Z,99579.50
2022-08-16T20:36:23.086Z,99579.22
2022-08-16T20:38:50.364Z,99575.88
2022-08-16T20:41:17.974Z,99577.25
2022-08-16T20:43:46.231Z,99578.22
2022-08-16T20:46:15.172Z,99579.75
2022-08-16T20:48:43.175Z,99581.44
2022-08-16T20:51:10.820Z,99578.44
2022-08-16T20:53:38.705Z,99577.19
2022-08-16T20:56:07.431Z,99582.88
2022-08-16T20:58:34.870Z,99579.75
2022-08-16T21:01:02.606Z,99575.34
2022-08-16T21:03:31.950Z,99581.09
2022-08-16T21:06:00.040Z,99579.88
2022-08-16T21:08:52.131Z,99587.03
2022-08-16T21:11:14.786Z,99582.59
2022-08-16T21:13:42.998Z,99585.69
2022-08-16T21:16:10.510Z,99584.63
2022-08-16T21:18:39.350Z,99579.56
2022-08-16T21:21:06.780Z,99581.75
2022-08-16T21:23:34.104Z,99587.63
2022-08-16T21:26:01.473Z,99589.34
2022-08-16T21:28:39.159Z,99592.41
2022-08-16T21:31:10.920Z,99587.59
2022-08-16T21:33:39.658Z,99593.94
2022-08-16T21:36:07.361Z,99596.00
2022-08-16T21:38:35.246Z,99591.09
2022-08-16T21:41:04.671Z,99593.59
2022-08-16T21:43:32.933Z,99593.91
2022-08-16T21:46:01.432Z,99588.03
2022-08-16T21:48:34.830Z,99583.38
2022-08-16T21:51:07.350Z,99580.41
2022-08-16T21:53:35.557Z,99587.00
2022-08-16T21:56:03.602Z,99583.19
2022-08-16T21:58:31.646Z,99591.44
2022-08-16T22:00:59.285Z,99595.34
2022-08-16T22:03:26.479Z,99586.53
2022-08-16T22:06:10.083Z,99593.75
2022-08-16T22:08:48.801Z,99597.94
2022-08-16T22:11:18.713Z,99597.81
2022-08-16T22:13:57.430Z,99597.00
2022-08-16T22:16:28.250Z,99602.97
2022-08-16T22:18:55.393Z,99600.69
2022-08-16T22:21:22.612Z,99597.91
2022-08-16T22:23:56.749Z,99597.16
2022-08-16T22:26:31.074Z,99599.63
2022-08-16T22:29:00.428Z,99594.28
2022-08-16T22:31:27.851Z,99600.56
2022-08-16T22:33:55.002Z,99610.19
2022-08-16T22:36:22.680Z,99606.22
2022-08-16T22:38:55.715Z,99606.44
2022-08-16T22:41:24.676Z,99609.59
2022-08-16T22:43:51.907Z,99606.13
2022-08-16T22:46:19.268Z,99614.53
2022-08-16T22:48:47.084Z,99602.63
2022-08-16T22:51:14.289Z,99608.91
2022-08-16T22:53:41.476Z,99604.00
2022-08-16T22:56:10.333Z,99615.66
2022-08-16T22:58:37.569Z,99620.09
2022-08-16T23:01:05.009Z,99603.81
2022-08-16T23:03:33.145Z,99606.91
2022-08-16T23:06:02.730Z,99609.38
2022-08-16T23:08:38.410Z,99610.97
2022-08-16T23:11:07.426Z,99607.41
2022-08-16T23:13:36.300Z,99610.00
2022-08-16T23:16:11.099Z,99602.59
2022-08-16T23:18:39.468Z,99603.97
2022-08-16T23:21:09.550Z,99600.88
2022-08-16T23:23:37.545Z,99600.63
2022-08-16T23:26:43.913Z,99598.97
2022-08-16T23:28:55.297Z,99598.75
2022-08-16T23:31:22.747Z,99596.91
2022-08-16T23:33:49.898Z,99589.41
2022-08-16T23:36:17.177Z,99597.56
2022-08-16T23:38:44.730Z,99596.81
2022-08-16T23:41:12.357Z,99599.28
2022-08-16T23:43:41.584Z,99606.16
2022-08-16T23:46:13.187Z,99627.13
2022-08-16T23:49:58.039Z,99610.41
2022-08-16T23:51:28.293Z,99619.44
2022-08-16T23:53:55.543Z,99614.22
2022-08-16T23:56:22.827Z,99620.63
2022-08-16T23:59:02.088Z,99616.88
